sensor_id;sensor_type;location;lat;lon;timestamp;temperature;humidity
52181;DHT22;38158;53.338;6.514;2022-08-03T00:01:57;18.60;99.90
52181;DHT22;38158;53.338;6.514;2022-08-03T00:04:23;18.60;99.90
52181;DHT22;38158;53.338;6.514;2022-08-03T00:06:49;18.60;99.90
52181;DHT22;38158;53.338;6.514;2022-08-03T00:09:15;18.60;99.90
52181;DHT22;38158;53.338;6.514;2022-08-03T00:11:40;18.60;99.90
52181;DHT22;38158;53.338;6.514;2022-08-03T00:14:07;18.50;99.90
52181;DHT22;38158;53.338;6.514;2022-08-03T00:16:33;18.50;99.90
52181;DHT22;38158;53.338;6.514;2022-08-03T00:18:59;18.50;99.90
52181;DHT22;38158;53.338;6.514;2022-08-03T00:21:25;18.50;99.90
52181;DHT22;38158;53.338;6.514;2022-08-03T00:23:50;18.50;99.90
52181;DHT22;38158;53.338;6.514;2022-08-03T00:26:16;18.50;99.90
52181;DHT22;38158;53.338;6.514;2022-08-03T00:28:41;18.50;99.90
52181;DHT22;38158;53.338;6.514;2022-08-03T00:31:07;18.50;99.90
52181;DHT22;38158;53.338;6.514;2022-08-03T00:33:33;18.50;99.90
52181;DHT22;38158;53.338;6.514;2022-08-03T00:35:59;18.40;99.90
52181;DHT22;38158;53.338;6.514;2022-08-03T00:38:24;18.40;99.90
52181;DHT22;38158;53.338;6.514;2022-08-03T00:40:50;18.40;99.90
52181;DHT22;38158;53.338;6.514;2022-08-03T00:43:16;18.40;99.90
52181;DHT22;38158;53.338;6.514;2022-08-03T00:45:42;18.40;99.90
52181;DHT22;38158;53.338;6.514;2022-08-03T00:48:09;18.40;99.90
52181;DHT22;38158;53.338;6.514;2022-08-03T00:50:39;18.40;99.90
52181;DHT22;38158;53.338;6.514;2022-08-03T00:53:05;18.40;99.90
52181;DHT22;38158;53.338;6.514;2022-08-03T00:55:32;18.40;99.90
52181;DHT22;38158;53.338;6.514;2022-08-03T00:57:58;18.40;99.90
52181;DHT22;38158;53.338;6.514;2022-08-03T01:00:26;18.30;99.90
52181;DHT22;38158;53.338;6.514;2022-08-03T01:02:52;18.30;99.90
52181;DHT22;38158;53.338;6.514;2022-08-03T01:05:19;18.30;99.90
52181;DHT22;38158;53.338;6.514;2022-08-03T01:08:11;18.30;99.90
52181;DHT22;38158;53.338;6.514;2022-08-03T01:14:03;18.30;99.90
52181;DHT22;38158;53.338;6.514;2022-08-03T01:24:36;18.30;99.90
52181;DHT22;38158;53.338;6.514;2022-08-03T01:27:14;18.30;99.90
52181;DHT22;38158;53.338;6.514;2022-08-03T01:32:17;18.30;99.90
52181;DHT22;38158;53.338;6.514;2022-08-03T01:34:51;18.30;99.90
52181;DHT22;38158;53.338;6.514;2022-08-03T01:37:23;18.30;99.90
52181;DHT22;38158;53.338;6.514;2022-08-03T01:39:53;18.30;99.90
52181;DHT22;38158;53.338;6.514;2022-08-03T01:42:20;18.20;99.90
52181;DHT22;38158;53.338;6.514;2022-08-03T01:44:47;18.20;99.90
52181;DHT22;38158;53.338;6.514;2022-08-03T01:47:19;18.20;99.90
52181;DHT22;38158;53.338;6.514;2022-08-03T01:49:45;18.10;99.90
52181;DHT22;38158;53.338;6.514;2022-08-03T01:52:16;18.10;99.90
52181;DHT22;38158;53.338;6.514;2022-08-03T01:54:45;18.10;99.90
52181;DHT22;38158;53.338;6.514;2022-08-03T01:57:13;18.10;99.90
52181;DHT22;38158;53.338;6.514;2022-08-03T01:59:40;18.10;99.90
52181;DHT22;38158;53.338;6.514;2022-08-03T02:02:07;18.10;99.90
52181;DHT22;38158;53.338;6.514;2022-08-03T02:04:37;18.10;99.90
52181;DHT22;38158;53.338;6.514;2022-08-03T02:07:04;18.00;99.90
52181;DHT22;38158;53.338;6.514;2022-08-03T02:09:31;18.00;99.90
52181;DHT22;38158;53.338;6.514;2022-08-03T02:11:57;18.00;99.90
52181;DHT22;38158;53.338;6.514;2022-08-03T02:14:25;18.00;99.90
52181;DHT22;38158;53.338;6.514;2022-08-03T02:16:53;18.00;99.90
52181;DHT22;38158;53.338;6.514;2022-08-03T02:19:19;18.00;99.90
52181;DHT22;38158;53.338;6.514;2022-08-03T02:21:46;18.00;99.90
52181;DHT22;38158;53.338;6.514;2022-08-03T02:24:13;18.00;99.90
52181;DHT22;38158;53.338;6.514;2022-08-03T02:26:39;18.00;99.90
52181;DHT22;38158;53.338;6.514;2022-08-03T02:29:14;18.00;99.90
52181;DHT22;38158;53.338;6.514;2022-08-03T02:31:42;18.00;99.90
52181;DHT22;38158;53.338;6.514;2022-08-03T02:34:13;18.00;99.90
52181;DHT22;38158;53.338;6.514;2022-08-03T02:36:40;18.00;99.90
52181;DHT22;38158;53.338;6.514;2022-08-03T02:39:09;18.00;99.90
52181;DHT22;38158;53.338;6.514;2022-08-03T02:41:48;18.00;99.90
52181;DHT22;38158;53.338;6.514;2022-08-03T02:44:17;18.00;99.90
52181;DHT22;38158;53.338;6.514;2022-08-03T02:46:47;18.00;99.90
52181;DHT22;38158;53.338;6.514;2022-08-03T02:49:15;17.90;99.90
52181;DHT22;38158;53.338;6.514;2022-08-03T02:51:44;17.90;99.90
52181;DHT22;38158;53.338;6.514;2022-08-03T02:54:10;17.90;99.90
52181;DHT22;38158;53.338;6.514;2022-08-03T02:56:39;17.90;99.90
52181;DHT22;38158;53.338;6.514;2022-08-03T02:59:05;17.90;99.90
52181;DHT22;38158;53.338;6.514;2022-08-03T03:01:32;17.90;99.90
52181;DHT22;38158;53.338;6.514;2022-08-03T03:03:59;17.90;99.90
52181;DHT22;38158;53.338;6.514;2022-08-03T03:06:25;17.80;99.90
52181;DHT22;38158;53.338;6.514;2022-08-03T03:08:52;17.90;99.90
52181;DHT22;38158;53.338;6.514;2022-08-03T03:11:20;17.80;99.90
52181;DHT22;38158;53.338;6.514;2022-08-03T03:13:48;17.80;99.90
52181;DHT22;38158;53.338;6.514;2022-08-03T03:16:15;17.80;99.90
52181;DHT22;38158;53.338;6.514;2022-08-03T03:18:43;17.80;99.90
52181;DHT22;38158;53.338;6.514;2022-08-03T03:21:09;17.70;99.90
52181;DHT22;38158;53.338;6.514;2022-08-03T03:23:37;17.70;99.90
52181;DHT22;38158;53.338;6.514;2022-08-03T03:26:04;17.70;99.90
52181;DHT22;38158;53.338;6.514;2022-08-03T03:28:31;17.70;99.90
52181;DHT22;38158;53.338;6.514;2022-08-03T03:30:57;17.70;99.90
52181;DHT22;38158;53.338;6.514;2022-08-03T03:33:23;17.70;99.90
52181;DHT22;38158;53.338;6.514;2022-08-03T03:35:49;17.70;99.90
52181;DHT22;38158;53.338;6.514;2022-08-03T03:38:16;17.70;99.90
52181;DHT22;38158;53.338;6.514;2022-08-03T03:40:43;17.70;99.90
52181;DHT22;38158;53.338;6.514;2022-08-03T03:43:12;17.70;99.90
52181;DHT22;38158;53.338;6.514;2022-08-03T03:45:40;17.70;99.90
52181;DHT22;38158;53.338;6.514;2022-08-03T03:48:07;17.70;99.90
52181;DHT22;38158;53.338;6.514;2022-08-03T03:50:34;17.70;99.90
52181;DHT22;38158;53.338;6.514;2022-08-03T03:53:00;17.70;99.90
52181;DHT22;38158;53.338;6.514;2022-08-03T03:55:26;17.70;99.90
52181;DHT22;38158;53.338;6.514;2022-08-03T03:57:52;17.70;99.90
52181;DHT22;38158;53.338;6.514;2022-08-03T04:00:18;17.70;99.90
52181;DHT22;38158;53.338;6.514;2022-08-03T04:02:44;17.60;99.90
52181;DHT22;38158;53.338;6.514;2022-08-03T04:05:11;17.60;99.90
52181;DHT22;38158;53.338;6.514;2022-08-03T04:08:05;17.60;99.90
52181;DHT22;38158;53.338;6.514;2022-08-03T04:11:06;17.50;99.90
52181;DHT22;38158;53.338;6.514;2022-08-03T04:13:41;17.60;99.90
52181;DHT22;38158;53.338;6.514;2022-08-03T04:16:11;17.60;99.90
52181;DHT22;38158;53.338;6.514;2022-08-03T04:18:38;17.50;99.90
52181;DHT22;38158;53.338;6.514;2022-08-03T04:21:10;17.60;99.90
52181;DHT22;38158;53.338;6.514;2022-08-03T04:23:42;17.50;99.90
52181;DHT22;38158;53.338;6.514;2022-08-03T04:26:11;17.50;99.90
52181;DHT22;38158;53.338;6.514;2022-08-03T04:28:40;17.50;99.90
52181;DHT22;38158;53.338;6.514;2022-08-03T04:31:08;17.50;99.90
52181;DHT22;38158;53.338;6.514;2022-08-03T04:33:36;17.50;99.90
52181;DHT22;38158;53.338;6.514;2022-08-03T04:36:05;17.50;99.90
52181;DHT22;38158;53.338;6.514;2022-08-03T04:38:36;17.50;99.90
52181;DHT22;38158;53.338;6.514;2022-08-03T04:41:03;17.50;99.90
52181;DHT22;38158;53.338;6.514;2022-08-03T04:43:32;17.50;99.90
52181;DHT22;38158;53.338;6.514;2022-08-03T04:45:59;17.50;99.90
52181;DHT22;38158;53.338;6.514;2022-08-03T04:48:25;17.60;99.90
52181;DHT22;38158;53.338;6.514;2022-08-03T04:50:52;17.50;99.90
52181;DHT22;38158;53.338;6.514;2022-08-03T04:53:18;17.60;99.90
52181;DHT22;38158;53.338;6.514;2022-08-03T04:55:44;17.60;99.90
52181;DHT22;38158;53.338;6.514;2022-08-03T04:58:09;17.60;99.90
52181;DHT22;38158;53.338;6.514;2022-08-03T05:00:37;17.70;99.90
52181;DHT22;38158;53.338;6.514;2022-08-03T05:03:02;17.70;99.90
52181;DHT22;38158;53.338;6.514;2022-08-03T05:05:28;17.70;99.90
52181;DHT22;38158;53.338;6.514;2022-08-03T05:07:54;17.70;99.90
52181;DHT22;38158;53.338;6.514;2022-08-03T05:10:20;17.80;99.90
52181;DHT22;38158;53.338;6.514;2022-08-03T05:12:47;17.80;99.90
52181;DHT22;38158;53.338;6.514;2022-08-03T05:15:13;17.80;99.90
52181;DHT22;38158;53.338;6.514;2022-08-03T05:17:40;17.90;99.90
52181;DHT22;38158;53.338;6.514;2022-08-03T05:20:06;17.90;99.90
52181;DHT22;38158;53.338;6.514;2022-08-03T05:22:32;17.90;99.90
52181;DHT22;38158;53.338;6.514;2022-08-03T05:24:59;18.00;99.90
52181;DHT22;38158;53.338;6.514;2022-08-03T05:27:25;18.10;99.90
52181;DHT22;38158;53.338;6.514;2022-08-03T05:29:50;18.10;99.90
52181;DHT22;38158;53.338;6.514;2022-08-03T05:32:17;18.20;99.90
52181;DHT22;38158;53.338;6.514;2022-08-03T05:34:43;18.20;99.90
52181;DHT22;38158;53.338;6.514;2022-08-03T05:37:09;18.20;99.90
52181;DHT22;38158;53.338;6.514;2022-08-03T05:39:35;18.30;99.90
52181;DHT22;38158;53.338;6.514;2022-08-03T05:42:01;18.30;99.90
52181;DHT22;38158;53.338;6.514;2022-08-03T05:44:27;18.40;99.90
52181;DHT22;38158;53.338;6.514;2022-08-03T05:46:52;18.50;99.90
52181;DHT22;38158;53.338;6.514;2022-08-03T05:49:19;18.50;99.90
52181;DHT22;38158;53.338;6.514;2022-08-03T05:51:45;18.50;99.90
52181;DHT22;38158;53.338;6.514;2022-08-03T05:54:11;18.60;99.90
52181;DHT22;38158;53.338;6.514;2022-08-03T05:56:36;18.70;99.90
52181;DHT22;38158;53.338;6.514;2022-08-03T05:59:03;18.70;99.90
52181;DHT22;38158;53.338;6.514;2022-08-03T06:01:28;18.80;99.90
52181;DHT22;38158;53.338;6.514;2022-08-03T06:03:56;18.80;99.90
52181;DHT22;38158;53.338;6.514;2022-08-03T06:06:22;18.90;99.90
52181;DHT22;38158;53.338;6.514;2022-08-03T06:08:48;19.00;99.90
52181;DHT22;38158;53.338;6.514;2022-08-03T06:11:13;19.00;99.90
52181;DHT22;38158;53.338;6.514;2022-08-03T06:13:40;19.10;99.90
52181;DHT22;38158;53.338;6.514;2022-08-03T06:16:07;19.20;99.90
52181;DHT22;38158;53.338;6.514;2022-08-03T06:18:33;19.20;99.90
52181;DHT22;38158;53.338;6.514;2022-08-03T06:20:58;19.30;99.90
52181;DHT22;38158;53.338;6.514;2022-08-03T06:23:24;19.30;99.90
52181;DHT22;38158;53.338;6.514;2022-08-03T06:25:49;19.40;99.90
52181;DHT22;38158;53.338;6.514;2022-08-03T06:28:15;19.40;99.90
52181;DHT22;38158;53.338;6.514;2022-08-03T06:30:42;19.50;99.90
52181;DHT22;38158;53.338;6.514;2022-08-03T06:33:08;19.60;99.90
52181;DHT22;38158;53.338;6.514;2022-08-03T06:35:34;19.70;99.90
52181;DHT22;38158;53.338;6.514;2022-08-03T06:37:59;19.80;99.90
52181;DHT22;38158;53.338;6.514;2022-08-03T06:40:25;19.80;99.90
52181;DHT22;38158;53.338;6.514;2022-08-03T06:42:58;19.90;99.90
52181;DHT22;38158;53.338;6.514;2022-08-03T06:45:24;19.90;99.90
52181;DHT22;38158;53.338;6.514;2022-08-03T06:48:04;20.00;99.90
52181;DHT22;38158;53.338;6.514;2022-08-03T06:50:31;20.00;99.90
52181;DHT22;38158;53.338;6.514;2022-08-03T06:52:57;20.10;99.90
52181;DHT22;38158;53.338;6.514;2022-08-03T06:55:23;20.10;99.90
52181;DHT22;38158;53.338;6.514;2022-08-03T06:57:49;20.20;99.90
52181;DHT22;38158;53.338;6.514;2022-08-03T07:00:15;20.20;99.90
52181;DHT22;38158;53.338;6.514;2022-08-03T07:02:40;20.30;99.90
52181;DHT22;38158;53.338;6.514;2022-08-03T07:05:07;20.40;99.90
52181;DHT22;38158;53.338;6.514;2022-08-03T07:07:33;20.50;99.90
52181;DHT22;38158;53.338;6.514;2022-08-03T07:09:59;20.60;99.90
52181;DHT22;38158;53.338;6.514;2022-08-03T07:12:28;20.60;99.90
52181;DHT22;38158;53.338;6.514;2022-08-03T07:14:55;20.70;99.90
52181;DHT22;38158;53.338;6.514;2022-08-03T07:17:21;20.70;99.90
52181;DHT22;38158;53.338;6.514;2022-08-03T07:19:47;20.80;99.90
52181;DHT22;38158;53.338;6.514;2022-08-03T07:22:13;20.90;99.90
52181;DHT22;38158;53.338;6.514;2022-08-03T07:24:39;20.90;99.90
52181;DHT22;38158;53.338;6.514;2022-08-03T07:27:06;21.00;99.90
52181;DHT22;38158;53.338;6.514;2022-08-03T07:29:33;21.10;99.90
52181;DHT22;38158;53.338;6.514;2022-08-03T07:31:59;21.10;99.90
52181;DHT22;38158;53.338;6.514;2022-08-03T07:34:25;21.20;99.90
52181;DHT22;38158;53.338;6.514;2022-08-03T07:36:50;21.30;99.90
52181;DHT22;38158;53.338;6.514;2022-08-03T07:39:16;21.40;99.90
52181;DHT22;38158;53.338;6.514;2022-08-03T07:41:42;21.50;99.90
52181;DHT22;38158;53.338;6.514;2022-08-03T07:44:07;21.60;99.90
52181;DHT22;38158;53.338;6.514;2022-08-03T07:46:33;21.60;99.90
52181;DHT22;38158;53.338;6.514;2022-08-03T07:48:58;21.60;99.90
52181;DHT22;38158;53.338;6.514;2022-08-03T07:51:24;21.70;99.90
52181;DHT22;38158;53.338;6.514;2022-08-03T07:53:50;21.80;99.90
52181;DHT22;38158;53.338;6.514;2022-08-03T07:56:15;21.90;99.90
52181;DHT22;38158;53.338;6.514;2022-08-03T07:58:41;21.90;99.90
52181;DHT22;38158;53.338;6.514;2022-08-03T08:01:07;22.00;99.90
52181;DHT22;38158;53.338;6.514;2022-08-03T08:03:33;22.10;99.90
52181;DHT22;38158;53.338;6.514;2022-08-03T08:05:59;22.20;99.90
52181;DHT22;38158;53.338;6.514;2022-08-03T08:08:24;22.20;99.90
52181;DHT22;38158;53.338;6.514;2022-08-03T08:10:50;22.30;99.90
52181;DHT22;38158;53.338;6.514;2022-08-03T08:13:16;22.30;99.90
52181;DHT22;38158;53.338;6.514;2022-08-03T08:15:41;22.30;99.90
52181;DHT22;38158;53.338;6.514;2022-08-03T08:18:07;22.30;99.90
52181;DHT22;38158;53.338;6.514;2022-08-03T08:20:34;22.30;99.90
52181;DHT22;38158;53.338;6.514;2022-08-03T08:23:05;22.40;99.90
52181;DHT22;38158;53.338;6.514;2022-08-03T08:25:31;22.50;99.90
52181;DHT22;38158;53.338;6.514;2022-08-03T08:27:57;22.70;99.90
52181;DHT22;38158;53.338;6.514;2022-08-03T08:30:27;22.70;99.90
52181;DHT22;38158;53.338;6.514;2022-08-03T08:32:53;22.90;99.90
52181;DHT22;38158;53.338;6.514;2022-08-03T08:35:18;23.10;99.90
52181;DHT22;38158;53.338;6.514;2022-08-03T08:37:44;23.20;99.90
52181;DHT22;38158;53.338;6.514;2022-08-03T08:40:10;23.20;99.90
52181;DHT22;38158;53.338;6.514;2022-08-03T08:42:42;23.20;99.90
52181;DHT22;38158;53.338;6.514;2022-08-03T08:45:09;23.30;99.90
52181;DHT22;38158;53.338;6.514;2022-08-03T08:47:40;23.30;99.90
52181;DHT22;38158;53.338;6.514;2022-08-03T08:50:08;23.40;99.90
52181;DHT22;38158;53.338;6.514;2022-08-03T08:52:35;23.50;99.90
52181;DHT22;38158;53.338;6.514;2022-08-03T08:55:02;23.60;99.90
52181;DHT22;38158;53.338;6.514;2022-08-03T08:57:52;23.60;99.90
52181;DHT22;38158;53.338;6.514;2022-08-03T09:00:16;23.60;99.90
52181;DHT22;38158;53.338;6.514;2022-08-03T09:02:43;23.70;99.90
52181;DHT22;38158;53.338;6.514;2022-08-03T09:05:14;23.80;99.90
52181;DHT22;38158;53.338;6.514;2022-08-03T09:07:44;23.80;99.90
52181;DHT22;38158;53.338;6.514;2022-08-03T09:10:12;23.80;99.90
52181;DHT22;38158;53.338;6.514;2022-08-03T09:12:41;23.90;99.90
52181;DHT22;38158;53.338;6.514;2022-08-03T09:15:30;23.90;99.90
52181;DHT22;38158;53.338;6.514;2022-08-03T09:17:58;24.00;99.90
52181;DHT22;38158;53.338;6.514;2022-08-03T09:20:25;24.10;99.90
52181;DHT22;38158;53.338;6.514;2022-08-03T09:23:00;24.20;99.90
52181;DHT22;38158;53.338;6.514;2022-08-03T09:25:34;24.30;99.90
52181;DHT22;38158;53.338;6.514;2022-08-03T09:28:12;24.30;99.90
52181;DHT22;38158;53.338;6.514;2022-08-03T09:30:40;24.50;99.90
52181;DHT22;38158;53.338;6.514;2022-08-03T09:33:08;24.60;99.90
52181;DHT22;38158;53.338;6.514;2022-08-03T09:35:45;24.60;99.90
52181;DHT22;38158;53.338;6.514;2022-08-03T09:38:19;24.60;99.90
52181;DHT22;38158;53.338;6.514;2022-08-03T09:40:52;24.70;99.90
52181;DHT22;38158;53.338;6.514;2022-08-03T09:43:19;24.80;99.90
52181;DHT22;38158;53.338;6.514;2022-08-03T09:45:46;24.80;99.90
52181;DHT22;38158;53.338;6.514;2022-08-03T09:48:28;24.90;99.90
52181;DHT22;38158;53.338;6.514;2022-08-03T09:50:56;24.90;99.90
52181;DHT22;38158;53.338;6.514;2022-08-03T09:53:23;24.90;99.90
52181;DHT22;38158;53.338;6.514;2022-08-03T09:56:00;25.00;99.90
52181;DHT22;38158;53.338;6.514;2022-08-03T09:58:28;25.00;99.90
52181;DHT22;38158;53.338;6.514;2022-08-03T10:00:57;25.00;99.90
52181;DHT22;38158;53.338;6.514;2022-08-03T10:03:24;25.00;99.90
52181;DHT22;38158;53.338;6.514;2022-08-03T10:05:50;25.10;99.90
52181;DHT22;38158;53.338;6.514;2022-08-03T10:08:17;25.10;99.90
52181;DHT22;38158;53.338;6.514;2022-08-03T10:10:45;25.10;99.90
52181;DHT22;38158;53.338;6.514;2022-08-03T10:13:12;25.20;99.90
52181;DHT22;38158;53.338;6.514;2022-08-03T10:15:39;25.10;99.90
52181;DHT22;38158;53.338;6.514;2022-08-03T10:18:06;25.10;99.90
52181;DHT22;38158;53.338;6.514;2022-08-03T10:20:40;25.20;99.90
52181;DHT22;38158;53.338;6.514;2022-08-03T10:23:08;25.20;99.90
52181;DHT22;38158;53.338;6.514;2022-08-03T10:25:36;25.20;99.90
52181;DHT22;38158;53.338;6.514;2022-08-03T10:28:03;25.30;99.90
52181;DHT22;38158;53.338;6.514;2022-08-03T10:30:32;25.40;99.90
52181;DHT22;38158;53.338;6.514;2022-08-03T10:35:26;25.40;99.90
52181;DHT22;38158;53.338;6.514;2022-08-03T10:37:58;25.50;99.90
52181;DHT22;38158;53.338;6.514;2022-08-03T10:40:27;25.60;99.90
52181;DHT22;38158;53.338;6.514;2022-08-03T10:42:55;25.70;99.90
52181;DHT22;38158;53.338;6.514;2022-08-03T10:45:26;25.80;99.90
52181;DHT22;38158;53.338;6.514;2022-08-03T10:47:53;25.90;99.90
52181;DHT22;38158;53.338;6.514;2022-08-03T10:50:22;25.90;99.90
52181;DHT22;38158;53.338;6.514;2022-08-03T10:52:56;25.90;99.90
52181;DHT22;38158;53.338;6.514;2022-08-03T10:55:41;26.00;99.90
52181;DHT22;38158;53.338;6.514;2022-08-03T11:01:09;26.20;99.90
52181;DHT22;38158;53.338;6.514;2022-08-03T11:06:24;26.10;99.90
52181;DHT22;38158;53.338;6.514;2022-08-03T11:11:35;26.10;99.90
52181;DHT22;38158;53.338;6.514;2022-08-03T11:14:07;26.20;99.90
52181;DHT22;38158;53.338;6.514;2022-08-03T11:16:36;26.20;99.90
52181;DHT22;38158;53.338;6.514;2022-08-03T11:19:05;26.30;99.90
52181;DHT22;38158;53.338;6.514;2022-08-03T11:27:26;26.80;97.60
52181;DHT22;38158;53.338;6.514;2022-08-03T11:35:19;26.70;98.10
52181;DHT22;38158;53.338;6.514;2022-08-03T11:41:11;26.60;97.70
52181;DHT22;38158;53.338;6.514;2022-08-03T11:46:08;26.70;96.70
52181;DHT22;38158;53.338;6.514;2022-08-03T11:48:49;26.70;97.10
52181;DHT22;38158;53.338;6.514;2022-08-03T11:53:44;26.70;96.70
52181;DHT22;38158;53.338;6.514;2022-08-03T11:56:12;26.70;97.00
52181;DHT22;38158;53.338;6.514;2022-08-03T11:58:48;26.80;95.90
52181;DHT22;38158;53.338;6.514;2022-08-03T12:01:14;26.80;94.70
52181;DHT22;38158;53.338;6.514;2022-08-03T12:03:43;26.70;95.70
52181;DHT22;38158;53.338;6.514;2022-08-03T12:06:10;26.80;96.30
52181;DHT22;38158;53.338;6.514;2022-08-03T12:08:37;26.90;96.50
52181;DHT22;38158;53.338;6.514;2022-08-03T12:11:04;26.90;97.50
52181;DHT22;38158;53.338;6.514;2022-08-03T12:13:48;27.10;97.30
52181;DHT22;38158;53.338;6.514;2022-08-03T12:16:25;27.20;96.40
52181;DHT22;38158;53.338;6.514;2022-08-03T12:19:05;27.20;96.70
52181;DHT22;38158;53.338;6.514;2022-08-03T12:21:31;27.30;94.90
52181;DHT22;38158;53.338;6.514;2022-08-03T12:24:02;27.30;96.30
52181;DHT22;38158;53.338;6.514;2022-08-03T12:26:29;27.30;95.00
52181;DHT22;38158;53.338;6.514;2022-08-03T12:28:55;27.20;95.90
52181;DHT22;38158;53.338;6.514;2022-08-03T12:31:21;27.20;95.80
52181;DHT22;38158;53.338;6.514;2022-08-03T12:34:16;27.30;96.30
52181;DHT22;38158;53.338;6.514;2022-08-03T12:36:53;27.40;94.80
52181;DHT22;38158;53.338;6.514;2022-08-03T12:39:24;27.40;96.00
52181;DHT22;38158;53.338;6.514;2022-08-03T12:41:55;27.50;95.30
52181;DHT22;38158;53.338;6.514;2022-08-03T12:44:32;27.50;94.20
52181;DHT22;38158;53.338;6.514;2022-08-03T12:46:58;27.40;95.00
52181;DHT22;38158;53.338;6.514;2022-08-03T12:49:24;27.30;95.50
52181;DHT22;38158;53.338;6.514;2022-08-03T12:54:21;27.50;95.90
52181;DHT22;38158;53.338;6.514;2022-08-03T12:59:40;27.50;94.90
52181;DHT22;38158;53.338;6.514;2022-08-03T13:02:15;27.50;94.90
52181;DHT22;38158;53.338;6.514;2022-08-03T13:04:41;27.50;95.50
52181;DHT22;38158;53.338;6.514;2022-08-03T13:07:08;27.50;95.30
52181;DHT22;38158;53.338;6.514;2022-08-03T13:12:18;27.50;95.50
52181;DHT22;38158;53.338;6.514;2022-08-03T13:14:50;27.60;94.70
52181;DHT22;38158;53.338;6.514;2022-08-03T13:17:16;27.60;94.00
52181;DHT22;38158;53.338;6.514;2022-08-03T13:19:46;27.60;94.50
52181;DHT22;38158;53.338;6.514;2022-08-03T13:22:17;27.60;94.30
52181;DHT22;38158;53.338;6.514;2022-08-03T13:24:44;27.70;94.60
52181;DHT22;38158;53.338;6.514;2022-08-03T13:27:10;27.60;94.50
52181;DHT22;38158;53.338;6.514;2022-08-03T13:29:36;27.60;94.70
52181;DHT22;38158;53.338;6.514;2022-08-03T13:32:03;27.70;94.30
52181;DHT22;38158;53.338;6.514;2022-08-03T13:34:30;27.70;93.60
52181;DHT22;38158;53.338;6.514;2022-08-03T13:36:55;27.80;93.30
52181;DHT22;38158;53.338;6.514;2022-08-03T13:39:21;27.70;93.20
52181;DHT22;38158;53.338;6.514;2022-08-03T13:41:47;27.60;93.40
52181;DHT22;38158;53.338;6.514;2022-08-03T13:44:13;27.70;93.20
52181;DHT22;38158;53.338;6.514;2022-08-03T13:46:39;27.60;93.20
52181;DHT22;38158;53.338;6.514;2022-08-03T13:49:05;27.60;93.00
52181;DHT22;38158;53.338;6.514;2022-08-03T13:51:32;27.70;92.80
52181;DHT22;38158;53.338;6.514;2022-08-03T13:53:57;27.70;92.70
52181;DHT22;38158;53.338;6.514;2022-08-03T13:56:28;27.70;92.40
52181;DHT22;38158;53.338;6.514;2022-08-03T13:58:54;27.80;92.00
52181;DHT22;38158;53.338;6.514;2022-08-03T14:01:20;27.80;92.00
52181;DHT22;38158;53.338;6.514;2022-08-03T14:03:46;27.80;91.60
52181;DHT22;38158;53.338;6.514;2022-08-03T14:06:14;27.80;91.50
52181;DHT22;38158;53.338;6.514;2022-08-03T14:08:40;27.80;90.90
52181;DHT22;38158;53.338;6.514;2022-08-03T14:11:06;27.70;90.40
52181;DHT22;38158;53.338;6.514;2022-08-03T14:13:32;27.60;89.90
52181;DHT22;38158;53.338;6.514;2022-08-03T14:15:57;27.60;90.00
52181;DHT22;38158;53.338;6.514;2022-08-03T14:18:23;27.50;88.20
52181;DHT22;38158;53.338;6.514;2022-08-03T14:20:49;27.50;88.90
52181;DHT22;38158;53.338;6.514;2022-08-03T14:23:15;27.50;88.30
52181;DHT22;38158;53.338;6.514;2022-08-03T14:25:41;27.40;88.90
52181;DHT22;38158;53.338;6.514;2022-08-03T14:28:07;27.40;90.00
52181;DHT22;38158;53.338;6.514;2022-08-03T14:30:33;27.40;89.20
52181;DHT22;38158;53.338;6.514;2022-08-03T14:32:59;27.40;88.80
52181;DHT22;38158;53.338;6.514;2022-08-03T14:35:25;27.30;88.80
52181;DHT22;38158;53.338;6.514;2022-08-03T14:37:50;27.30;88.40
52181;DHT22;38158;53.338;6.514;2022-08-03T14:40:17;27.10;87.20
52181;DHT22;38158;53.338;6.514;2022-08-03T14:42:43;27.10;88.70
52181;DHT22;38158;53.338;6.514;2022-08-03T14:45:09;27.00;89.90
52181;DHT22;38158;53.338;6.514;2022-08-03T14:47:35;27.00;90.70
52181;DHT22;38158;53.338;6.514;2022-08-03T14:50:00;27.10;91.10
52181;DHT22;38158;53.338;6.514;2022-08-03T14:52:29;27.20;91.10
52181;DHT22;38158;53.338;6.514;2022-08-03T14:54:55;27.20;90.00
52181;DHT22;38158;53.338;6.514;2022-08-03T14:57:20;27.20;90.10
52181;DHT22;38158;53.338;6.514;2022-08-03T14:59:46;27.20;89.70
52181;DHT22;38158;53.338;6.514;2022-08-03T15:02:12;27.20;89.60
52181;DHT22;38158;53.338;6.514;2022-08-03T15:04:38;27.30;89.30
52181;DHT22;38158;53.338;6.514;2022-08-03T15:07:03;27.40;89.20
52181;DHT22;38158;53.338;6.514;2022-08-03T15:09:29;27.50;88.80
52181;DHT22;38158;53.338;6.514;2022-08-03T15:11:55;27.50;88.10
52181;DHT22;38158;53.338;6.514;2022-08-03T15:14:21;27.50;88.00
52181;DHT22;38158;53.338;6.514;2022-08-03T15:16:46;27.40;88.00
52181;DHT22;38158;53.338;6.514;2022-08-03T15:19:12;27.40;86.60
52181;DHT22;38158;53.338;6.514;2022-08-03T15:21:38;27.50;84.80
52181;DHT22;38158;53.338;6.514;2022-08-03T15:24:04;27.60;83.90
52181;DHT22;38158;53.338;6.514;2022-08-03T15:26:29;27.70;82.70
52181;DHT22;38158;53.338;6.514;2022-08-03T15:28:56;27.70;82.00
52181;DHT22;38158;53.338;6.514;2022-08-03T15:31:22;27.80;80.30
52181;DHT22;38158;53.338;6.514;2022-08-03T15:33:48;27.70;80.30
52181;DHT22;38158;53.338;6.514;2022-08-03T15:36:16;27.70;80.20
52181;DHT22;38158;53.338;6.514;2022-08-03T15:38:42;27.70;80.20
52181;DHT22;38158;53.338;6.514;2022-08-03T15:41:08;27.70;80.00
52181;DHT22;38158;53.338;6.514;2022-08-03T15:43:33;27.80;79.30
52181;DHT22;38158;53.338;6.514;2022-08-03T15:45:59;27.80;79.60
52181;DHT22;38158;53.338;6.514;2022-08-03T15:48:25;27.80;79.70
52181;DHT22;38158;53.338;6.514;2022-08-03T15:50:50;27.90;79.40
52181;DHT22;38158;53.338;6.514;2022-08-03T15:53:16;27.90;80.00
52181;DHT22;38158;53.338;6.514;2022-08-03T15:55:42;27.90;81.20
52181;DHT22;38158;53.338;6.514;2022-08-03T15:58:10;27.90;82.20
52181;DHT22;38158;53.338;6.514;2022-08-03T16:00:36;27.90;80.70
52181;DHT22;38158;53.338;6.514;2022-08-03T16:03:02;27.80;81.70
52181;DHT22;38158;53.338;6.514;2022-08-03T16:05:28;27.70;82.40
52181;DHT22;38158;53.338;6.514;2022-08-03T16:07:53;27.80;83.60
52181;DHT22;38158;53.338;6.514;2022-08-03T16:10:20;27.80;83.40
52181;DHT22;38158;53.338;6.514;2022-08-03T16:12:46;27.80;83.20
52181;DHT22;38158;53.338;6.514;2022-08-03T16:15:13;27.80;82.30
52181;DHT22;38158;53.338;6.514;2022-08-03T16:17:39;27.70;83.70
52181;DHT22;38158;53.338;6.514;2022-08-03T16:20:06;27.80;83.90
52181;DHT22;38158;53.338;6.514;2022-08-03T16:22:33;27.80;83.30
52181;DHT22;38158;53.338;6.514;2022-08-03T16:24:59;27.80;82.90
52181;DHT22;38158;53.338;6.514;2022-08-03T16:27:25;27.80;82.50